Time;durP1;ratioP1;P1;durP2;ratioP2;P2;SDS_P1;SDS_P2;PMS_P1;PMS_P2;Temp;Humidity;BMP_temperature;BMP_pressure;BME280_temperature;BME280_humidity;BME280_pressure;Samples;Min_cycle;Max_cycle;Signal;HPM_P1;HPM_P2
2022/08/14 00:02:11;;;;;;;;;;;;;;;;;;5030190;28;20355;-75
2022/08/14 00:04:38;;;;;;;;;;;;;;;;;;5030113;28;20579;-67
2022/08/14 00:07:09;;;;;;;;;;;;;;;;;;5027776;28;19987;-68
2022/08/14 00:09:36;;;;;;;;;;;;;;;;;;5027875;28;19956;-67
2022/08/14 00:12:05;;;;;;;;;;;;;;;;;;5027398;28;19931;-67
2022/08/14 00:14:32;;;;;;;;;;;;;;;;;;5027264;28;19925;-75
2022/08/14 00:16:58;;;;;;;;;;;;;;;;;;5021498;28;19949;-76
2022/08/14 00:19:26;;;;;;;;;;;;;;;;;;5026728;28;20016;-75
2022/08/14 00:21:52;;;;;;;;;;;;;;;;;;5027803;28;19944;-78
2022/08/14 00:24:19;;;;;;;;;;;;;;;;;;5027235;28;20044;-77
2022/08/14 00:26:54;;;;;;;;;;;;;;;;;;5026771;28;19925;-72
2022/08/14 00:29:20;;;;;;;;;;;;;;;;;;5028736;28;19969;-72
2022/08/14 00:31:46;;;;;;;;;;;;;;;;;;5031013;28;19956;-69
2022/08/14 00:34:13;;;;;;;;;;;;;;;;;;5027624;28;20021;-69
2022/08/14 00:36:59;;;;;;;;;;;;;;;;;;5020555;28;19921;-71
2022/08/14 00:39:27;;;;;;;;;;;;;;;;;;5026800;28;20430;-70
2022/08/14 00:41:53;;;;;;;;;;;;;;;;;;5026525;28;19968;-71
2022/08/14 00:44:20;;;;;;;;;;;;;;;;;;5028501;28;19964;-70
2022/08/14 00:46:52;;;;;;;;;;;;;;;;;;5025843;28;19921;-70
2022/08/14 00:49:19;;;;;;;;;;;;;;;;;;5026168;28;20024;-70
2022/08/14 00:51:46;;;;;;;;;;;;;;;;;;5026796;28;20020;-70
2022/08/14 00:54:13;;;;;;;;;;;;;;;;;;5026921;28;19961;-67
2022/08/14 00:56:47;;;;;;;;;;;;;;;;;;5026485;28;20363;-71
2022/08/14 00:59:14;;;;;;;;;;;;;;;;;;5029400;28;19925;-72
2022/08/14 01:01:41;;;;;;;;;;;;;;;;;;5030385;28;19921;-70
2022/08/14 01:04:08;;;;;;;;;;;;;;;;;;5025073;28;19925;-73
2022/08/14 01:06:35;;;;;;;;;;;;;;;;;;5025908;28;20008;-76
2022/08/14 01:09:01;;;;;;;;;;;;;;;;;;5026742;28;20590;-74
2022/08/14 01:11:27;;;;;;;;;;;;;;;;;;5027298;28;19967;-72
2022/08/14 01:14:00;;;;;;;;;;;;;;;;;;5035401;28;19925;-71
2022/08/14 01:16:43;;;;;;;;;;;;;;;;;;5029520;28;19983;-71
2022/08/14 01:21:55;;;;;;;;;;;;;;;;;;5026873;28;20008;-82
2022/08/14 01:24:21;;;;;;;;;;;;;;;;;;5028929;28;19925;-72
2022/08/14 01:26:56;;;;;;;;;;;;;;;;;;5026507;28;19924;-72
2022/08/14 01:29:22;;;;;;;;;;;;;;;;;;5027397;28;19967;-71
2022/08/14 01:32:09;;;;;;;;;;;;;;;;;;5026837;28;20382;-72
2022/08/14 01:34:35;;;;;;;;;;;;;;;;;;5027798;28;19921;-71
2022/08/14 01:37:23;;;;;;;;;;;;;;;;;;5025940;28;19995;-76
2022/08/14 01:39:50;;;;;;;;;;;;;;;;;;5025162;28;20359;-78
2022/08/14 01:42:16;;;;;;;;;;;;;;;;;;5026365;28;19925;-78
2022/08/14 01:44:57;;;;;;;;;;;;;;;;;;5002241;28;20434;-79
2022/08/14 01:47:24;;;;;;;;;;;;;;;;;;5027891;28;20027;-72
2022/08/14 01:49:50;;;;;;;;;;;;;;;;;;5030621;28;19925;-72
2022/08/14 01:52:25;;;;;;;;;;;;;;;;;;5025905;28;20335;-72
2022/08/14 01:55:00;;;;;;;;;;;;;;;;;;5026633;28;19921;-72
2022/08/14 01:57:26;;;;;;;;;;;;;;;;;;5025847;28;19967;-71
2022/08/14 01:59:59;;;;;;;;;;;;;;;;;;5026112;28;20421;-72
2022/08/14 02:02:26;;;;;;;;;;;;;;;;;;5027068;28;20008;-71
2022/08/14 02:04:53;;;;;;;;;;;;;;;;;;5030163;28;20019;-72
2022/08/14 02:07:21;;;;;;;;;;;;;;;;;;5026154;28;20302;-73
2022/08/14 02:10:08;;;;;;;;;;;;;;;;;;5025064;28;19925;-71
2022/08/14 02:12:39;;;;;;;;;;;;;;;;;;5025869;28;19999;-71
2022/08/14 02:15:08;;;;;;;;;;;;;;;;;;5020422;28;20015;-71
2022/08/14 02:17:34;;;;;;;;;;;;;;;;;;5029633;28;20376;-69
2022/08/14 02:20:01;;;;;;;;;;;;;;;;;;5034976;28;20020;-70
2022/08/14 02:22:28;;;;;;;;;;;;;;;;;;5030098;28;19921;-66
2022/08/14 02:24:58;;;;;;;;;;;;;;;;;;5029592;28;19929;-67
2022/08/14 02:27:25;;;;;;;;;;;;;;;;;;5029284;28;20438;-66
2022/08/14 02:30:11;;;;;;;;;;;;;;;;;;5029388;28;20350;-63
2022/08/14 02:32:39;;;;;;;;;;;;;;;;;;5029890;28;20642;-67
2022/08/14 02:35:15;;;;;;;;;;;;;;;;;;5029256;28;19953;-67
2022/08/14 02:37:41;;;;;;;;;;;;;;;;;;5031972;28;19974;-64
2022/08/14 02:40:14;;;;;;;;;;;;;;;;;;5025821;28;19921;-64
2022/08/14 02:42:40;;;;;;;;;;;;;;;;;;5028785;28;19928;-64
2022/08/14 02:45:07;;;;;;;;;;;;;;;;;;5029117;28;20015;-68
2022/08/14 02:47:35;;;;;;;;;;;;;;;;;;5029534;28;19928;-68
2022/08/14 02:50:03;;;;;;;;;;;;;;;;;;5033421;28;19928;-65
2022/08/14 02:52:30;;;;;;;;;;;;;;;;;;5029893;28;19959;-65
2022/08/14 02:55:16;;;;;;;;;;;;;;;;;;5029148;28;19925;-65
2022/08/14 02:57:45;;;;;;;;;;;;;;;;;;5027298;28;19921;-65
2022/08/14 03:00:12;;;;;;;;;;;;;;;;;;5028722;28;19925;-65
2022/08/14 03:02:44;;;;;;;;;;;;;;;;;;5029088;28;20045;-65
2022/08/14 03:05:22;;;;;;;;;;;;;;;;;;5030458;28;19924;-71
2022/08/14 03:07:48;;;;;;;;;;;;;;;;;;5032346;28;19921;-70
2022/08/14 03:10:15;;;;;;;;;;;;;;;;;;5022589;28;19927;-71
2022/08/14 03:12:52;;;;;;;;;;;;;;;;;;5023388;28;19921;-70
2022/08/14 03:15:18;;;;;;;;;;;;;;;;;;5027550;28;19960;-71
2022/08/14 03:17:50;;;;;;;;;;;;;;;;;;5028809;28;19921;-76
2022/08/14 03:20:23;;;;;;;;;;;;;;;;;;5030007;28;19929;-66
2022/08/14 03:22:50;;;;;;;;;;;;;;;;;;5032171;28;19925;-70
2022/08/14 03:25:17;;;;;;;;;;;;;;;;;;5027314;28;19921;-70
2022/08/14 03:27:43;;;;;;;;;;;;;;;;;;5027731;28;20294;-70
2022/08/14 03:30:13;;;;;;;;;;;;;;;;;;5028521;28;19968;-69
2022/08/14 03:32:41;;;;;;;;;;;;;;;;;;5028565;28;19956;-67
2022/08/14 03:35:10;;;;;;;;;;;;;;;;;;5027426;28;19929;-67
2022/08/14 03:37:37;;;;;;;;;;;;;;;;;;5029788;28;20016;-68
2022/08/14 03:40:24;;;;;;;;;;;;;;;;;;5028030;28;20011;-68
2022/08/14 03:42:50;;;;;;;;;;;;;;;;;;5027618;28;19959;-68
2022/08/14 03:45:17;;;;;;;;;;;;;;;;;;5028190;28;19967;-70
2022/08/14 03:48:00;;;;;;;;;;;;;;;;;;5028182;28;19921;-70
2022/08/14 03:50:27;;;;;;;;;;;;;;;;;;5028680;28;19927;-68
2022/08/14 03:52:57;;;;;;;;;;;;;;;;;;5032737;28;20015;-69
2022/08/14 03:55:27;;;;;;;;;;;;;;;;;;5027831;28;19967;-69
2022/08/14 03:57:54;;;;;;;;;;;;;;;;;;5026606;28;19960;-68
2022/08/14 04:00:21;;;;;;;;;;;;;;;;;;5027676;28;20453;-69
2022/08/14 04:03:07;;;;;;;;;;;;;;;;;;5027847;28;20437;-68
2022/08/14 04:05:34;;;;;;;;;;;;;;;;;;5027636;28;19956;-66
2022/08/14 04:08:08;;;;;;;;;;;;;;;;;;5031579;28;19940;-66
2022/08/14 04:10:48;;;;;;;;;;;;;;;;;;5035554;28;19921;-68
2022/08/14 04:13:16;;;;;;;;;;;;;;;;;;5044751;28;20019;-70
2022/08/14 04:15:44;;;;;;;;;;;;;;;;;;5027611;28;20016;-69
2022/08/14 04:18:22;;;;;;;;;;;;;;;;;;5027415;28;19921;-71
2022/08/14 04:20:48;;;;;;;;;;;;;;;;;;5027440;28;19961;-69
2022/08/14 04:23:21;;;;;;;;;;;;;;;;;;5029831;28;19967;-70
2022/08/14 04:25:52;;;;;;;;;;;;;;;;;;5030608;28;19975;-70
2022/08/14 04:28:19;;;;;;;;;;;;;;;;;;5027162;28;19942;-72
2022/08/14 04:31:05;;;;;;;;;;;;;;;;;;5027351;28;19921;-65
2022/08/14 04:33:32;;;;;;;;;;;;;;;;;;5020304;28;19963;-66
2022/08/14 04:35:58;;;;;;;;;;;;;;;;;;5022931;28;20020;-67
2022/08/14 04:43:57;;;;;;;;;;;;;;;;;;5031705;28;19921;-66
2022/08/14 04:46:24;;;;;;;;;;;;;;;;;;5026973;28;20011;-68
2022/08/14 04:49:12;;;;;;;;;;;;;;;;;;5026764;28;19921;-66
2022/08/14 04:51:40;;;;;;;;;;;;;;;;;;5027131;28;19975;-67
2022/08/14 04:54:12;;;;;;;;;;;;;;;;;;5027079;28;19952;-66
2022/08/14 04:56:38;;;;;;;;;;;;;;;;;;5026703;28;20008;-73
2022/08/14 04:59:05;;;;;;;;;;;;;;;;;;5031052;28;20027;-66
2022/08/14 05:01:36;;;;;;;;;;;;;;;;;;5028104;28;20290;-68
2022/08/14 05:04:05;;;;;;;;;;;;;;;;;;5025554;28;19928;-69
2022/08/14 05:06:32;;;;;;;;;;;;;;;;;;5027182;28;20028;-80
2022/08/14 05:09:04;;;;;;;;;;;;;;;;;;5023353;28;19955;-80
2022/08/14 05:11:32;;;;;;;;;;;;;;;;;;5042519;28;19952;-80
2022/08/14 05:13:58;;;;;;;;;;;;;;;;;;5054473;28;19952;-81
2022/08/14 05:16:45;;;;;;;;;;;;;;;;;;5034833;28;20333;-82
2022/08/14 05:19:13;;;;;;;;;;;;;;;;;;5031046;28;19968;-73
2022/08/14 05:21:44;;;;;;;;;;;;;;;;;;5027002;28;19921;-76
2022/08/14 05:24:26;;;;;;;;;;;;;;;;;;5026522;28;19921;-78
2022/08/14 05:26:53;;;;;;;;;;;;;;;;;;5026147;28;20012;-78
2022/08/14 05:29:19;;;;;;;;;;;;;;;;;;5015729;28;19921;-78
2022/08/14 05:31:45;;;;;;;;;;;;;;;;;;5029619;28;19921;-76
2022/08/14 05:34:12;;;;;;;;;;;;;;;;;;5024959;28;19996;-71
2022/08/14 05:36:38;;;;;;;;;;;;;;;;;;5021647;28;19921;-68
2022/08/14 05:39:05;;;;;;;;;;;;;;;;;;5027030;28;20338;-71
2022/08/14 05:41:33;;;;;;;;;;;;;;;;;;5025471;28;20402;-71
2022/08/14 05:44:19;;;;;;;;;;;;;;;;;;5027167;28;20552;-67
2022/08/14 05:46:45;;;;;;;;;;;;;;;;;;5028768;28;20361;-65
2022/08/14 05:49:12;;;;;;;;;;;;;;;;;;5026614;28;19956;-64
2022/08/14 05:51:40;;;;;;;;;;;;;;;;;;5029596;28;19994;-65
2022/08/14 05:54:06;;;;;;;;;;;;;;;;;;5030258;28;19925;-67
2022/08/14 05:56:38;;;;;;;;;;;;;;;;;;5030354;28;20025;-66
2022/08/14 05:59:04;;;;;;;;;;;;;;;;;;5035293;28;19975;-71
2022/08/14 06:01:31;;;;;;;;;;;;;;;;;;5028745;28;20264;-67
2022/08/14 06:03:57;;;;;;;;;;;;;;;;;;5030010;28;19921;-67
2022/08/14 06:06:24;;;;;;;;;;;;;;;;;;5029848;28;19968;-71
2022/08/14 06:08:50;;;;;;;;;;;;;;;;;;5022957;28;19925;-67
2022/08/14 06:11:17;;;;;;;;;;;;;;;;;;5032478;28;19983;-69
2022/08/14 06:13:45;;;;;;;;;;;;;;;;;;5022922;28;19927;-69
2022/08/14 06:16:12;;;;;;;;;;;;;;;;;;5026824;28;20015;-68
2022/08/14 06:18:39;;;;;;;;;;;;;;;;;;5029437;28;19960;-68
2022/08/14 06:21:05;;;;;;;;;;;;;;;;;;5030022;28;19927;-68
2022/08/14 06:23:38;;;;;;;;;;;;;;;;;;5020380;28;19932;-67
2022/08/14 06:26:04;;;;;;;;;;;;;;;;;;5018985;28;20008;-68
2022/08/14 06:28:31;;;;;;;;;;;;;;;;;;5029276;28;19925;-68
2022/08/14 06:30:57;;;;;;;;;;;;;;;;;;5028865;28;20362;-68
2022/08/14 06:33:24;;;;;;;;;;;;;;;;;;5029599;28;19964;-68
2022/08/14 06:36:10;;;;;;;;;;;;;;;;;;5018704;28;19920;-69
2022/08/14 06:38:38;;;;;;;;;;;;;;;;;;5028859;28;19961;-69
2022/08/14 06:41:05;;;;;;;;;;;;;;;;;;5034241;28;19921;-69
2022/08/14 06:43:32;;;;;;;;;;;;;;;;;;5023796;28;19921;-69
2022/08/14 06:45:59;;;;;;;;;;;;;;;;;;5029208;28;20295;-68
2022/08/14 06:48:26;;;;;;;;;;;;;;;;;;5029210;28;20015;-70
2022/08/14 06:50:52;;;;;;;;;;;;;;;;;;5029137;28;20040;-69
2022/08/14 06:53:19;;;;;;;;;;;;;;;;;;5031081;28;20371;-69
2022/08/14 06:55:45;;;;;;;;;;;;;;;;;;5031608;28;20015;-69
2022/08/14 06:58:23;;;;;;;;;;;;;;;;;;5047874;28;19948;-69
2022/08/14 07:06:25;;;;;;;;;;;;;;;;;;5019529;28;19921;-69
2022/08/14 07:09:11;;;;;;;;;;;;;;;;;;5028594;28;19921;-70
2022/08/14 07:11:39;;;;;;;;;;;;;;;;;;5028791;28;20004;-69
2022/08/14 07:14:05;;;;;;;;;;;;;;;;;;5033098;28;19960;-69
2022/08/14 07:16:32;;;;;;;;;;;;;;;;;;5023733;28;19983;-73
2022/08/14 07:18:59;;;;;;;;;;;;;;;;;;5028662;28;20012;-71
2022/08/14 07:21:26;;;;;;;;;;;;;;;;;;5027067;28;20275;-69
2022/08/14 07:23:52;;;;;;;;;;;;;;;;;;5028258;28;19975;-77
2022/08/14 07:26:19;;;;;;;;;;;;;;;;;;5023120;28;20016;-78
2022/08/14 07:28:45;;;;;;;;;;;;;;;;;;5029834;28;19951;-77
2022/08/14 07:31:12;;;;;;;;;;;;;;;;;;5026190;28;19959;-77
2022/08/14 07:33:39;;;;;;;;;;;;;;;;;;5028310;28;19921;-77
2022/08/14 07:36:07;;;;;;;;;;;;;;;;;;5022544;28;19925;-77
2022/08/14 07:38:42;;;;;;;;;;;;;;;;;;5028128;28;20011;-78
2022/08/14 07:41:09;;;;;;;;;;;;;;;;;;5032375;28;19921;-77
2022/08/14 07:43:39;;;;;;;;;;;;;;;;;;5029516;28;20015;-73
2022/08/14 07:46:06;;;;;;;;;;;;;;;;;;5027582;28;19975;-76
2022/08/14 07:48:32;;;;;;;;;;;;;;;;;;5026173;28;19932;-75
2022/08/14 07:51:00;;;;;;;;;;;;;;;;;;5026814;28;19967;-76
2022/08/14 07:53:35;;;;;;;;;;;;;;;;;;5028030;28;20379;-75
2022/08/14 07:56:05;;;;;;;;;;;;;;;;;;5028531;28;19921;-76
2022/08/14 07:58:35;;;;;;;;;;;;;;;;;;5027673;28;20015;-76
2022/08/14 08:01:04;;;;;;;;;;;;;;;;;;5022040;28;19972;-74
2022/08/14 08:03:30;;;;;;;;;;;;;;;;;;5027515;28;19929;-77
2022/08/14 08:05:57;;;;;;;;;;;;;;;;;;5014828;28;19921;-75
2022/08/14 08:08:23;;;;;;;;;;;;;;;;;;5029612;28;19968;-76
2022/08/14 08:10:52;;;;;;;;;;;;;;;;;;5030755;28;19927;-77
2022/08/14 08:13:28;;;;;;;;;;;;;;;;;;5012359;28;20387;-75
2022/08/14 08:15:55;;;;;;;;;;;;;;;;;;5015254;28;19956;-76
2022/08/14 08:18:22;;;;;;;;;;;;;;;;;;4985610;28;19929;-72
2022/08/14 08:20:53;;;;;;;;;;;;;;;;;;5011676;28;19991;-67
2022/08/14 08:23:19;;;;;;;;;;;;;;;;;;5009932;28;19929;-68
2022/08/14 08:25:46;;;;;;;;;;;;;;;;;;5029285;28;19928;-66
2022/08/14 08:28:15;;;;;;;;;;;;;;;;;;5016582;28;20000;-67
2022/08/14 08:30:47;;;;;;;;;;;;;;;;;;5010616;28;19932;-67
2022/08/14 08:33:15;;;;;;;;;;;;;;;;;;5013910;28;19929;-66
2022/08/14 08:35:41;;;;;;;;;;;;;;;;;;5011328;28;20008;-68
2022/08/14 08:38:13;;;;;;;;;;;;;;;;;;5012648;28;19928;-67
2022/08/14 08:40:59;;;;;;;;;;;;;;;;;;5016126;28;19922;-67
2022/08/14 08:43:26;;;;;;;;;;;;;;;;;;5023971;28;20011;-68
2022/08/14 08:45:53;;;;;;;;;;;;;;;;;;5025547;28;19921;-66
2022/08/14 08:48:19;;;;;;;;;;;;;;;;;;5026509;28;20019;-67
2022/08/14 08:50:57;;;;;;;;;;;;;;;;;;5027364;28;19948;-68
2022/08/14 08:53:23;;;;;;;;;;;;;;;;;;5029126;28;20531;-68
2022/08/14 08:55:50;;;;;;;;;;;;;;;;;;5029395;28;19951;-71
2022/08/14 08:58:16;;;;;;;;;;;;;;;;;;5025937;28;19956;-64
2022/08/14 09:00:45;;;;;;;;;;;;;;;;;;5028891;28;19921;-66
2022/08/14 09:03:14;;;;;;;;;;;;;;;;;;5019256;28;19984;-67
2022/08/14 09:05:40;;;;;;;;;;;;;;;;;;5026768;28;20016;-68
2022/08/14 09:08:07;;;;;;;;;;;;;;;;;;5046837;28;20027;-64
2022/08/14 09:10:40;;;;;;;;;;;;;;;;;;5026690;28;20031;-72
2022/08/14 09:13:07;;;;;;;;;;;;;;;;;;5020919;28;19961;-69
2022/08/14 09:15:33;;;;;;;;;;;;;;;;;;5019031;28;19979;-73
2022/08/14 09:18:02;;;;;;;;;;;;;;;;;;5026554;28;19921;-67
2022/08/14 09:20:28;;;;;;;;;;;;;;;;;;5028640;28;19959;-70
2022/08/14 09:22:56;;;;;;;;;;;;;;;;;;5030227;28;20016;-69
2022/08/14 09:25:22;;;;;;;;;;;;;;;;;;5026196;28;19964;-73
2022/08/14 09:28:09;;;;;;;;;;;;;;;;;;5026439;28;20065;-69
2022/08/14 09:30:35;;;;;;;;;;;;;;;;;;5026292;28;19929;-70
2022/08/14 09:33:01;;;;;;;;;;;;;;;;;;5029642;28;19969;-69
2022/08/14 09:35:35;;;;;;;;;;;;;;;;;;5021989;28;19933;-69
2022/08/14 09:38:02;;;;;;;;;;;;;;;;;;5030752;28;20024;-71
2022/08/14 09:40:28;;;;;;;;;;;;;;;;;;5026382;28;19928;-70
2022/08/14 09:42:55;;;;;;;;;;;;;;;;;;5025999;28;20466;-70
2022/08/14 09:45:22;;;;;;;;;;;;;;;;;;5026377;28;19921;-70
2022/08/14 09:47:49;;;;;;;;;;;;;;;;;;5026400;28;19964;-70
2022/08/14 09:50:17;;;;;;;;;;;;;;;;;;5029643;28;19921;-70
2022/08/14 09:52:43;;;;;;;;;;;;;;;;;;5027749;28;19967;-70
2022/08/14 09:55:11;;;;;;;;;;;;;;;;;;5023137;28;19921;-70
2022/08/14 09:57:38;;;;;;;;;;;;;;;;;;5010616;28;19921;-70
2022/08/14 10:00:05;;;;;;;;;;;;;;;;;;5016845;28;19925;-70
2022/08/14 10:02:32;;;;;;;;;;;;;;;;;;5019785;28;20397;-70
2022/08/14 10:05:00;;;;;;;;;;;;;;;;;;5029848;28;19956;-71
2022/08/14 10:07:28;;;;;;;;;;;;;;;;;;5025091;28;20276;-70
2022/08/14 10:09:54;;;;;;;;;;;;;;;;;;5021394;28;19925;-68
2022/08/14 10:12:26;;;;;;;;;;;;;;;;;;5044668;28;19925;-68
2022/08/14 10:14:54;;;;;;;;;;;;;;;;;;5025697;28;20464;-70
2022/08/14 10:17:25;;;;;;;;;;;;;;;;;;5028311;28;19971;-69
2022/08/14 10:19:52;;;;;;;;;;;;;;;;;;5028967;28;19960;-70
2022/08/14 10:22:19;;;;;;;;;;;;;;;;;;5024923;28;19955;-68
2022/08/14 10:25:05;;;;;;;;;;;;;;;;;;5025254;28;20426;-69
2022/08/14 10:27:32;;;;;;;;;;;;;;;;;;5022952;28;19921;-69
2022/08/14 10:30:03;;;;;;;;;;;;;;;;;;5027366;28;20282;-69
2022/08/14 10:32:29;;;;;;;;;;;;;;;;;;5027093;28;19933;-69
2022/08/14 10:35:05;;;;;;;;;;;;;;;;;;5025776;28;19928;-70
2022/08/14 10:37:32;;;;;;;;;;;;;;;;;;5027809;28;19967;-70
2022/08/14 10:39:59;;;;;;;;;;;;;;;;;;5028409;28;20649;-70
2022/08/14 10:42:27;;;;;;;;;;;;;;;;;;5028400;28;19921;-70
2022/08/14 10:44:53;;;;;;;;;;;;;;;;;;5024466;28;20432;-69
2022/08/14 10:47:20;;;;;;;;;;;;;;;;;;5024634;28;19931;-69
2022/08/14 10:50:06;;;;;;;;;;;;;;;;;;5029139;28;20414;-71
2022/08/14 10:52:34;;;;;;;;;;;;;;;;;;5028471;28;19990;-71
2022/08/14 10:55:00;;;;;;;;;;;;;;;;;;5028433;28;19928;-70
2022/08/14 10:57:27;;;;;;;;;;;;;;;;;;5028529;28;20020;-69
2022/08/14 10:59:54;;;;;;;;;;;;;;;;;;5015905;28;20015;-70
2022/08/14 11:02:21;;;;;;;;;;;;;;;;;;5031664;28;20492;-70
2022/08/14 11:05:07;;;;;;;;;;;;;;;;;;5027778;28;20446;-70
2022/08/14 11:07:35;;;;;;;;;;;;;;;;;;5018860;28;19976;-71
2022/08/14 11:10:01;;;;;;;;;;;;;;;;;;5023906;28;19967;-70
2022/08/14 11:12:28;;;;;;;;;;;;;;;;;;5028372;28;20393;-70
2022/08/14 11:15:00;;;;;;;;;;;;;;;;;;5028100;28;19922;-71
2022/08/14 11:17:28;;;;;;;;;;;;;;;;;;5029977;28;20290;-68
2022/08/14 11:19:57;;;;;;;;;;;;;;;;;;5031654;28;19960;-68
2022/08/14 11:22:24;;;;;;;;;;;;;;;;;;5028503;28;20019;-69
2022/08/14 11:25:10;;;;;;;;;;;;;;;;;;5027079;28;19948;-69
2022/08/14 11:27:37;;;;;;;;;;;;;;;;;;5027911;28;19931;-69
2022/08/14 11:30:03;;;;;;;;;;;;;;;;;;5028618;28;19928;-69
2022/08/14 11:32:50;;;;;;;;;;;;;;;;;;5028498;28;19921;-69
2022/08/14 11:35:16;;;;;;;;;;;;;;;;;;5026022;28;20354;-70
2022/08/14 11:37:43;;;;;;;;;;;;;;;;;;5029617;28;19974;-69
2022/08/14 11:40:09;;;;;;;;;;;;;;;;;;5028115;28;19921;-71
2022/08/14 11:42:36;;;;;;;;;;;;;;;;;;5027458;28;20439;-69
2022/08/14 11:45:23;;;;;;;;;;;;;;;;;;5027786;28;20302;-69
2022/08/14 11:47:49;;;;;;;;;;;;;;;;;;5027924;28;19928;-67
2022/08/14 11:50:33;;;;;;;;;;;;;;;;;;5013532;28;19925;-67
2022/08/14 11:53:03;;;;;;;;;;;;;;;;;;5031905;28;20379;-67
2022/08/14 11:55:30;;;;;;;;;;;;;;;;;;5023807;28;19971;-68
2022/08/14 11:57:56;;;;;;;;;;;;;;;;;;5023814;28;19929;-68
2022/08/14 12:00:22;;;;;;;;;;;;;;;;;;5017606;28;19920;-67
2022/08/14 12:02:57;;;;;;;;;;;;;;;;;;5019694;28;19928;-67
2022/08/14 12:05:29;;;;;;;;;;;;;;;;;;5029458;28;19921;-67
2022/08/14 12:07:56;;;;;;;;;;;;;;;;;;5030680;28;20502;-67
2022/08/14 12:10:25;;;;;;;;;;;;;;;;;;5027338;28;20295;-68
2022/08/14 12:13:06;;;;;;;;;;;;;;;;;;5027656;28;19921;-68
2022/08/14 12:15:33;;;;;;;;;;;;;;;;;;5027388;28;19928;-68
2022/08/14 12:18:00;;;;;;;;;;;;;;;;;;5026722;28;19975;-68
2022/08/14 12:20:26;;;;;;;;;;;;;;;;;;5027858;28;20418;-67
2022/08/14 12:22:56;;;;;;;;;;;;;;;;;;5027894;28;19947;-67
2022/08/14 12:25:22;;;;;;;;;;;;;;;;;;5017169;28;20446;-67
2022/08/14 12:27:50;;;;;;;;;;;;;;;;;;5023747;28;20612;-67
2022/08/14 12:30:19;;;;;;;;;;;;;;;;;;5027321;28;19928;-68
2022/08/14 12:32:46;;;;;;;;;;;;;;;;;;5026771;28;19965;-68
2022/08/14 12:35:13;;;;;;;;;;;;;;;;;;5025880;28;19956;-67
2022/08/14 12:37:40;;;;;;;;;;;;;;;;;;5027860;28;19921;-67
2022/08/14 12:40:06;;;;;;;;;;;;;;;;;;5026816;28;20437;-67
2022/08/14 12:42:32;;;;;;;;;;;;;;;;;;5029497;28;19932;-67
2022/08/14 12:45:01;;;;;;;;;;;;;;;;;;5027057;28;19925;-68
2022/08/14 12:47:30;;;;;;;;;;;;;;;;;;5028598;28;19921;-68
2022/08/14 12:49:56;;;;;;;;;;;;;;;;;;5029501;28;20410;-67
2022/08/14 12:52:23;;;;;;;;;;;;;;;;;;5025235;28;19921;-68
2022/08/14 12:54:56;;;;;;;;;;;;;;;;;;5027038;28;19959;-68
2022/08/14 12:57:26;;;;;;;;;;;;;;;;;;5020021;28;19932;-67
2022/08/14 12:59:53;;;;;;;;;;;;;;;;;;5011816;28;20034;-68
2022/08/14 13:02:19;;;;;;;;;;;;;;;;;;5029716;28;19928;-67
2022/08/14 13:04:46;;;;;;;;;;;;;;;;;;5028571;28;19921;-67
2022/08/14 13:07:12;;;;;;;;;;;;;;;;;;5022402;28;20007;-67
2022/08/14 13:09:39;;;;;;;;;;;;;;;;;;5026731;28;19944;-68
2022/08/14 13:12:06;;;;;;;;;;;;;;;;;;5026138;28;19921;-67
2022/08/14 13:14:52;;;;;;;;;;;;;;;;;;5026477;28;19925;-68
2022/08/14 13:17:19;;;;;;;;;;;;;;;;;;5045142;28;20024;-67
2022/08/14 13:19:45;;;;;;;;;;;;;;;;;;5028657;28;19974;-67
2022/08/14 13:22:12;;;;;;;;;;;;;;;;;;5010351;28;19968;-65
2022/08/14 13:25:24;;;;;;;;;;;;;;;;;;5021392;28;20286;-69
2022/08/14 13:27:51;;;;;;;;;;;;;;;;;;5012279;28;20016;-70
2022/08/14 13:30:20;;;;;;;;;;;;;;;;;;5030434;28;19929;-70
2022/08/14 13:32:49;;;;;;;;;;;;;;;;;;5012221;28;20379;-67
2022/08/14 13:35:16;;;;;;;;;;;;;;;;;;5025933;28;20324;-68
2022/08/14 13:37:48;;;;;;;;;;;;;;;;;;5017108;28;19921;-67
2022/08/14 13:40:18;;;;;;;;;;;;;;;;;;5020578;28;19925;-71
2022/08/14 13:42:45;;;;;;;;;;;;;;;;;;5025661;28;20379;-68
2022/08/14 13:45:12;;;;;;;;;;;;;;;;;;5025656;28;19979;-69
2022/08/14 13:47:39;;;;;;;;;;;;;;;;;;5026990;28;20383;-70
2022/08/14 13:50:10;;;;;;;;;;;;;;;;;;5026410;28;19932;-69
2022/08/14 13:52:39;;;;;;;;;;;;;;;;;;5025756;28;19921;-70
2022/08/14 13:55:24;;;;;;;;;;;;;;;;;;5021774;28;20371;-68
2022/08/14 13:57:51;;;;;;;;;;;;;;;;;;5018966;28;19964;-66
2022/08/14 14:00:29;;;;;;;;;;;;;;;;;;5004193;28;19929;-69
2022/08/14 14:02:58;;;;;;;;;;;;;;;;;;4999130;28;19984;-69
2022/08/14 14:05:24;;;;;;;;;;;;;;;;;;4998744;28;19995;-65
2022/08/14 14:07:51;;;;;;;;;;;;;;;;;;4999515;28;19977;-69
2022/08/14 14:10:19;;;;;;;;;;;;;;;;;;4997332;28;19983;-66
2022/08/14 14:12:53;;;;;;;;;;;;;;;;;;5002126;28;19929;-77
2022/08/14 14:15:21;;;;;;;;;;;;;;;;;;5002870;28;19922;-69
2022/08/14 14:17:54;;;;;;;;;;;;;;;;;;5002059;28;20016;-65
2022/08/14 14:20:25;;;;;;;;;;;;;;;;;;5002868;28;19925;-68
2022/08/14 14:23:01;;;;;;;;;;;;;;;;;;5003606;28;19948;-66
2022/08/14 14:25:34;;;;;;;;;;;;;;;;;;5002203;28;20095;-68
2022/08/14 14:28:08;;;;;;;;;;;;;;;;;;5022650;28;20406;-65
2022/08/14 14:30:35;;;;;;;;;;;;;;;;;;5029485;28;19921;-66
2022/08/14 14:33:18;;;;;;;;;;;;;;;;;;5028921;28;19925;-69
2022/08/14 14:36:05;;;;;;;;;;;;;;;;;;5023144;28;19956;-72
2022/08/14 14:38:31;;;;;;;;;;;;;;;;;;5031023;28;20036;-66
2022/08/14 14:40:58;;;;;;;;;;;;;;;;;;5032563;28;19975;-65
2022/08/14 14:43:26;;;;;;;;;;;;;;;;;;5028569;28;19964;-65
2022/08/14 14:45:53;;;;;;;;;;;;;;;;;;5029821;28;19921;-67
2022/08/14 14:48:19;;;;;;;;;;;;;;;;;;5028731;28;20015;-65
2022/08/14 14:50:50;;;;;;;;;;;;;;;;;;5026980;28;19929;-66
2022/08/14 14:53:17;;;;;;;;;;;;;;;;;;5020199;28;19928;-67
2022/08/14 14:55:44;;;;;;;;;;;;;;;;;;5032501;28;19990;-67
2022/08/14 14:58:30;;;;;;;;;;;;;;;;;;5028107;28;19967;-67
2022/08/14 15:00:58;;;;;;;;;;;;;;;;;;5028918;28;19928;-65
2022/08/14 15:03:25;;;;;;;;;;;;;;;;;;5027368;28;20012;-67
2022/08/14 15:05:52;;;;;;;;;;;;;;;;;;5013814;28;19952;-67
2022/08/14 15:08:18;;;;;;;;;;;;;;;;;;5032471;28;19948;-70
2022/08/14 15:10:52;;;;;;;;;;;;;;;;;;5020916;28;20379;-64
2022/08/14 15:13:19;;;;;;;;;;;;;;;;;;5001931;28;19929;-66
2022/08/14 15:15:46;;;;;;;;;;;;;;;;;;5018465;28;20548;-66
2022/08/14 15:18:12;;;;;;;;;;;;;;;;;;5027615;28;20363;-72
2022/08/14 15:21:00;;;;;;;;;;;;;;;;;;5027771;28;20387;-70
2022/08/14 15:23:26;;;;;;;;;;;;;;;;;;5029915;28;20478;-71
2022/08/14 15:26:11;;;;;;;;;;;;;;;;;;5031843;28;20383;-69
2022/08/14 15:28:39;;;;;;;;;;;;;;;;;;5028230;28;20283;-70
2022/08/14 15:31:05;;;;;;;;;;;;;;;;;;5024489;28;19968;-71
2022/08/14 15:36:37;;;;;;;;;;;;;;;;;;5021584;28;19925;-70
2022/08/14 15:39:03;;;;;;;;;;;;;;;;;;5028492;28;20011;-70
2022/08/14 15:41:30;;;;;;;;;;;;;;;;;;5030925;28;19921;-75
2022/08/14 15:44:06;;;;;;;;;;;;;;;;;;5033640;28;20453;-77
2022/08/14 15:46:33;;;;;;;;;;;;;;;;;;5025891;28;19963;-71
2022/08/14 15:49:08;;;;;;;;;;;;;;;;;;5022862;28;19925;-65
2022/08/14 15:51:35;;;;;;;;;;;;;;;;;;5026570;28;20371;-66
2022/08/14 15:54:02;;;;;;;;;;;;;;;;;;5014065;28;19983;-66
2022/08/14 15:56:28;;;;;;;;;;;;;;;;;;5030038;28;19928;-75
2022/08/14 15:58:58;;;;;;;;;;;;;;;;;;5031065;28;19927;-71
2022/08/14 16:01:24;;;;;;;;;;;;;;;;;;5028632;28;20007;-75
2022/08/14 16:04:11;;;;;;;;;;;;;;;;;;5023036;28;19925;-69
2022/08/14 16:06:37;;;;;;;;;;;;;;;;;;5028621;28;19921;-72
2022/08/14 16:09:04;;;;;;;;;;;;;;;;;;5027980;28;20000;-67
2022/08/14 16:11:36;;;;;;;;;;;;;;;;;;5011501;28;19929;-68
2022/08/14 16:14:03;;;;;;;;;;;;;;;;;;5031165;28;19924;-69
2022/08/14 16:16:34;;;;;;;;;;;;;;;;;;5024540;28;20314;-64
2022/08/14 16:19:17;;;;;;;;;;;;;;;;;;5027565;28;19975;-74
2022/08/14 16:21:43;;;;;;;;;;;;;;;;;;5027105;28;20011;-85
2022/08/14 16:24:26;;;;;;;;;;;;;;;;;;5028032;28;20371;-84
2022/08/14 16:26:53;;;;;;;;;;;;;;;;;;5027361;28;19948;-75
2022/08/14 16:29:20;;;;;;;;;;;;;;;;;;5031018;28;20363;-67
2022/08/14 16:31:48;;;;;;;;;;;;;;;;;;5023763;28;19944;-67
2022/08/14 16:34:14;;;;;;;;;;;;;;;;;;5022839;28;20374;-74
2022/08/14 16:37:01;;;;;;;;;;;;;;;;;;5021094;28;19921;-71
2022/08/14 16:39:28;;;;;;;;;;;;;;;;;;5026603;28;19975;-73
2022/08/14 16:41:56;;;;;;;;;;;;;;;;;;5024943;28;20312;-68
2022/08/14 16:44:23;;;;;;;;;;;;;;;;;;5015344;28;19960;-68
2022/08/14 16:46:58;;;;;;;;;;;;;;;;;;5017586;28;19928;-69
2022/08/14 16:49:24;;;;;;;;;;;;;;;;;;5022359;28;19921;-74
2022/08/14 16:52:00;;;;;;;;;;;;;;;;;;5021913;28;19921;-69
2022/08/14 16:54:30;;;;;;;;;;;;;;;;;;5026255;28;19960;-76
2022/08/14 16:57:00;;;;;;;;;;;;;;;;;;5027187;28;20454;-76
2022/08/14 16:59:27;;;;;;;;;;;;;;;;;;5029888;28;19924;-71
2022/08/14 17:01:59;;;;;;;;;;;;;;;;;;5029155;28;19921;-71
2022/08/14 17:04:35;;;;;;;;;;;;;;;;;;5026523;28;19925;-69
2022/08/14 17:07:06;;;;;;;;;;;;;;;;;;5027036;28;20011;-75
2022/08/14 17:09:33;;;;;;;;;;;;;;;;;;5026968;28;19924;-66
2022/08/14 17:11:59;;;;;;;;;;;;;;;;;;5009671;28;20020;-69
2022/08/14 17:14:27;;;;;;;;;;;;;;;;;;5005430;28;20372;-68
2022/08/14 17:16:53;;;;;;;;;;;;;;;;;;5028329;28;20024;-72
2022/08/14 17:19:20;;;;;;;;;;;;;;;;;;5021234;28;20055;-80
2022/08/14 17:21:46;;;;;;;;;;;;;;;;;;4998390;28;20326;-69